This is the latest recevied weather packets stored in our database for station/object PY2FLB-13. If no packets are shown the sender has not sent any weather packets the latest 10 day(s).
| Time | Temp. | Humidity | Pressure | Rain* | Wind** | Luminosity | Snow |
|---|---|---|---|---|---|---|---|
| 1777936968 | 28.33° C | 48% | 1015.6 hPa | - | - | - | - |
| 1777936668 | 27.78° C | 48% | 1015.6 hPa | - | - | - | - |
| 1777936368 | 27.78° C | 49% | 1015.6 hPa | - | - | - | - |
| 1777936068 | 27.78° C | 49% | 1015.5 hPa | - | - | - | - |
| 1777935768 | 27.78° C | 49% | 1015.6 hPa | - | - | - | - |
| 1777935468 | 27.78° C | 49% | 1015.5 hPa | - | - | - | - |
| 1777935168 | 28.89° C | 46% | 1015.2 hPa | - | - | - | - |
| 1777934868 | 28.89° C | 47% | 1015.1 hPa | - | - | - | - |
| 1777934568 | 28.89° C | 46% | 1015.1 hPa | - | - | - | - |
| 1777934268 | 29.44° C | 45% | 1014.8 hPa | - | - | - | - |
| 1777933968 | 30° C | 45% | 1014.7 hPa | - | - | - | - |
| 1777933668 | 28.89° C | 48% | 1014.8 hPa | - | - | - | - |
| 1777933368 | 27.78° C | 50% | 1014.9 hPa | - | - | - | - |
| 1777933069 | 28.33° C | 49% | 1014.9 hPa | - | - | - | - |
| 1777932768 | 28.33° C | 49% | 1014.8 hPa | - | - | - | - |
| 1777932468 | 27.78° C | 49% | 1014.7 hPa | - | - | - | - |
| 1777932168 | 28.33° C | 49% | 1014.6 hPa | - | - | - | - |
| 1777931868 | 28.33° C | 49% | 1014.6 hPa | - | - | - | - |
| 1777931568 | 28.33° C | 48% | 1014.5 hPa | - | - | - | - |
| 1777931268 | 28.33° C | 47% | 1014.5 hPa | - | - | - | - |
| 1777930968 | 28.33° C | 47% | 1014.4 hPa | - | - | - | - |
| 1777930670 | 28.33° C | 47% | 1014.3 hPa | - | - | - | - |
| 1777930368 | 28.33° C | 46% | 1014.2 hPa | - | - | - | - |
| 1777930068 | 28.33° C | 47% | 1014.2 hPa | - | - | - | - |
| 1777929768 | 28.33° C | 46% | 1014.2 hPa | - | - | - | - |
* Rain since midnight (hover to see other rain measurements)
** Current wind speed in m/s (hover to see current wind gust speed)